sensor_id;sensor_type;location;lat;lon;timestamp;pressure;altitude;pressure_sealevel;temperature;humidity
12759;BME280;20944;47.048;15.390;2022-09-28T00:02:42;96237.41;;;8.50;100.00
12759;BME280;20944;47.048;15.390;2022-09-28T00:05:30;96239.63;;;8.59;100.00
12759;BME280;20944;47.048;15.390;2022-09-28T00:08:20;96215.09;;;8.43;100.00
12759;BME280;20944;47.048;15.390;2022-09-28T00:11:11;96306.88;;;8.95;100.00
12759;BME280;20944;47.048;15.390;2022-09-28T00:14:02;96336.00;;;9.06;100.00
12759;BME280;20944;47.048;15.390;2022-09-28T00:16:53;96304.09;;;8.98;100.00
12759;BME280;20944;47.048;15.390;2022-09-28T00:19:41;96305.94;;;8.96;100.00
12759;BME280;20944;47.048;15.390;2022-09-28T00:22:31;96306.09;;;8.93;100.00
12759;BME280;20944;47.048;15.390;2022-09-28T00:25:21;96297.91;;;9.01;100.00
12759;BME280;20944;47.048;15.390;2022-09-28T00:28:11;96311.41;;;9.10;100.00
12759;BME280;20944;47.048;15.390;2022-09-28T00:30:59;96227.94;;;8.68;100.00
12759;BME280;20944;47.048;15.390;2022-09-28T00:33:49;96258.44;;;8.68;100.00
12759;BME280;20944;47.048;15.390;2022-09-28T00:36:38;96326.44;;;8.85;100.00
12759;BME280;20944;47.048;15.390;2022-09-28T00:39:27;96202.88;;;8.01;100.00
12759;BME280;20944;47.048;15.390;2022-09-28T00:42:20;96318.28;;;8.72;100.00
12759;BME280;20944;47.048;15.390;2022-09-28T00:45:09;96302.53;;;8.53;100.00
12759;BME280;20944;47.048;15.390;2022-09-28T00:47:58;96245.22;;;8.28;100.00
12759;BME280;20944;47.048;15.390;2022-09-28T00:50:46;96285.16;;;8.52;100.00
12759;BME280;20944;47.048;15.390;2022-09-28T00:53:36;96250.59;;;8.25;100.00
12759;BME280;20944;47.048;15.390;2022-09-28T00:56:28;96223.00;;;8.20;100.00
12759;BME280;20944;47.048;15.390;2022-09-28T00:59:20;96311.03;;;8.58;100.00
12759;BME280;20944;47.048;15.390;2022-09-28T01:02:11;96301.16;;;8.45;100.00
12759;BME280;20944;47.048;15.390;2022-09-28T01:05:00;96274.25;;;8.21;100.00
12759;BME280;20944;47.048;15.390;2022-09-28T01:07:50;96314.72;;;8.53;100.00
12759;BME280;20944;47.048;15.390;2022-09-28T01:10:39;96326.34;;;8.46;100.00
12759;BME280;20944;47.048;15.390;2022-09-28T01:13:31;96325.72;;;8.39;100.00
12759;BME280;20944;47.048;15.390;2022-09-28T01:16:29;96326.41;;;8.44;100.00
12759;BME280;20944;47.048;15.390;2022-09-28T01:19:36;96269.00;;;8.00;100.00
12759;BME280;20944;47.048;15.390;2022-09-28T01:22:54;96322.34;;;8.37;100.00
12759;BME280;20944;47.048;15.390;2022-09-28T01:25:54;96327.63;;;8.34;100.00
12759;BME280;20944;47.048;15.390;2022-09-28T01:28:48;96247.16;;;7.81;100.00
12759;BME280;20944;47.048;15.390;2022-09-28T01:31:44;96277.66;;;8.01;100.00
12759;BME280;20944;47.048;15.390;2022-09-28T01:34:38;96311.28;;;8.30;100.00
12759;BME280;20944;47.048;15.390;2022-09-28T01:37:35;96330.81;;;8.20;100.00
12759;BME280;20944;47.048;15.390;2022-09-28T01:40:26;96251.16;;;7.90;100.00
12759;BME280;20944;47.048;15.390;2022-09-28T01:43:18;96262.34;;;7.92;100.00
12759;BME280;20944;47.048;15.390;2022-09-28T01:46:13;96311.03;;;8.15;100.00
12759;BME280;20944;47.048;15.390;2022-09-28T01:49:05;96305.97;;;8.32;100.00
12759;BME280;20944;47.048;15.390;2022-09-28T01:51:59;96244.06;;;7.93;100.00
12759;BME280;20944;47.048;15.390;2022-09-28T01:54:53;96300.28;;;8.22;100.00
12759;BME280;20944;47.048;15.390;2022-09-28T01:57:47;96291.78;;;7.95;100.00
12759;BME280;20944;47.048;15.390;2022-09-28T02:00:39;96207.13;;;7.60;100.00
12759;BME280;20944;47.048;15.390;2022-09-28T02:03:35;96262.13;;;7.76;100.00
12759;BME280;20944;47.048;15.390;2022-09-28T02:06:30;96299.44;;;8.00;100.00
12759;BME280;20944;47.048;15.390;2022-09-28T02:09:23;96288.88;;;8.03;100.00
12759;BME280;20944;47.048;15.390;2022-09-28T02:12:23;96285.06;;;8.11;100.00
12759;BME280;20944;47.048;15.390;2022-09-28T02:15:18;96118.69;;;7.12;100.00
12759;BME280;20944;47.048;15.390;2022-09-28T02:18:08;96120.72;;;7.03;100.00
12759;BME280;20944;47.048;15.390;2022-09-28T02:21:02;96261.28;;;7.97;100.00
12759;BME280;20944;47.048;15.390;2022-09-28T02:23:56;96243.81;;;7.99;100.00
12759;BME280;20944;47.048;15.390;2022-09-28T02:26:47;96193.56;;;7.74;100.00
12759;BME280;20944;47.048;15.390;2022-09-28T02:29:37;96250.00;;;8.19;100.00
12759;BME280;20944;47.048;15.390;2022-09-28T02:32:27;96223.91;;;7.97;100.00
12759;BME280;20944;47.048;15.390;2022-09-28T02:35:19;96267.28;;;8.21;100.00
12759;BME280;20944;47.048;15.390;2022-09-28T02:38:10;96232.72;;;7.94;100.00
12759;BME280;20944;47.048;15.390;2022-09-28T02:41:02;96168.69;;;7.65;100.00
12759;BME280;20944;47.048;15.390;2022-09-28T02:44:01;96197.38;;;7.65;100.00
12759;BME280;20944;47.048;15.390;2022-09-28T02:46:59;96276.78;;;8.22;100.00
12759;BME280;20944;47.048;15.390;2022-09-28T02:49:56;96270.38;;;8.09;100.00
12759;BME280;20944;47.048;15.390;2022-09-28T02:53:00;95851.75;;;5.48;100.00
12759;BME280;20944;47.048;15.390;2022-09-28T02:56:06;96273.16;;;8.04;100.00
12759;BME280;20944;47.048;15.390;2022-09-28T02:59:03;96202.81;;;7.59;100.00
12759;BME280;20944;47.048;15.390;2022-09-28T03:02:00;96113.97;;;6.99;100.00
12759;BME280;20944;47.048;15.390;2022-09-28T03:05:00;96307.81;;;8.08;100.00
12759;BME280;20944;47.048;15.390;2022-09-28T03:07:56;96238.75;;;7.73;100.00
12759;BME280;20944;47.048;15.390;2022-09-28T03:10:49;96221.25;;;7.54;100.00
12759;BME280;20944;47.048;15.390;2022-09-28T03:13:42;96297.25;;;7.89;100.00
12759;BME280;20944;47.048;15.390;2022-09-28T03:16:31;96222.94;;;7.55;100.00
12759;BME280;20944;47.048;15.390;2022-09-28T03:19:22;96198.63;;;7.33;100.00
12759;BME280;20944;47.048;15.390;2022-09-28T03:22:12;96164.00;;;7.08;100.00
12759;BME280;20944;47.048;15.390;2022-09-28T03:25:00;96201.22;;;7.33;100.00
12759;BME280;20944;47.048;15.390;2022-09-28T03:27:49;96264.91;;;7.48;100.00
12759;BME280;20944;47.048;15.390;2022-09-28T03:30:39;96232.22;;;7.17;100.00
12759;BME280;20944;47.048;15.390;2022-09-28T03:33:28;96260.34;;;7.31;100.00
12759;BME280;20944;47.048;15.390;2022-09-28T03:36:17;96249.09;;;7.30;100.00
12759;BME280;20944;47.048;15.390;2022-09-28T03:39:05;96239.53;;;7.31;100.00
12759;BME280;20944;47.048;15.390;2022-09-28T03:41:54;96255.91;;;7.56;100.00
12759;BME280;20944;47.048;15.390;2022-09-28T03:44:42;96144.69;;;6.90;100.00
12759;BME280;20944;47.048;15.390;2022-09-28T03:47:33;96130.22;;;6.83;100.00
12759;BME280;20944;47.048;15.390;2022-09-28T03:50:21;96247.56;;;7.48;100.00
12759;BME280;20944;47.048;15.390;2022-09-28T03:53:10;96219.84;;;7.22;100.00
12759;BME280;20944;47.048;15.390;2022-09-28T03:56:01;96254.34;;;7.29;100.00
12759;BME280;20944;47.048;15.390;2022-09-28T03:58:51;96132.19;;;6.53;100.00
12759;BME280;20944;47.048;15.390;2022-09-28T04:01:39;96208.94;;;7.13;100.00
12759;BME280;20944;47.048;15.390;2022-09-28T04:04:30;96253.78;;;7.44;100.00
12759;BME280;20944;47.048;15.390;2022-09-28T04:07:18;96121.28;;;6.66;100.00
12759;BME280;20944;47.048;15.390;2022-09-28T04:10:08;96184.72;;;7.11;100.00
12759;BME280;20944;47.048;15.390;2022-09-28T04:12:57;96147.22;;;6.91;100.00
12759;BME280;20944;47.048;15.390;2022-09-28T04:15:51;96109.53;;;6.80;100.00
12759;BME280;20944;47.048;15.390;2022-09-28T04:18:40;96174.31;;;7.11;100.00
12759;BME280;20944;47.048;15.390;2022-09-28T04:21:31;96127.44;;;6.87;100.00
12759;BME280;20944;47.048;15.390;2022-09-28T04:24:20;96112.16;;;6.78;100.00
12759;BME280;20944;47.048;15.390;2022-09-28T04:27:08;96117.47;;;6.98;100.00
12759;BME280;20944;47.048;15.390;2022-09-28T04:30:14;95859.59;;;5.47;100.00
12759;BME280;20944;47.048;15.390;2022-09-28T04:33:03;96223.13;;;7.51;100.00
12759;BME280;20944;47.048;15.390;2022-09-28T04:35:52;96206.34;;;7.58;100.00
12759;BME280;20944;47.048;15.390;2022-09-28T04:38:41;96222.34;;;7.71;100.00
12759;BME280;20944;47.048;15.390;2022-09-28T04:41:39;96212.69;;;7.73;100.00
12759;BME280;20944;47.048;15.390;2022-09-28T04:44:28;96188.75;;;7.63;100.00
12759;BME280;20944;47.048;15.390;2022-09-28T04:47:17;96190.16;;;7.50;100.00
12759;BME280;20944;47.048;15.390;2022-09-28T04:50:06;96216.53;;;7.64;100.00
12759;BME280;20944;47.048;15.390;2022-09-28T04:52:54;96240.13;;;7.83;100.00
12759;BME280;20944;47.048;15.390;2022-09-28T04:55:54;96163.41;;;7.23;100.00
12759;BME280;20944;47.048;15.390;2022-09-28T04:58:43;96255.81;;;7.81;100.00
12759;BME280;20944;47.048;15.390;2022-09-28T05:01:38;96249.84;;;7.79;100.00
12759;BME280;20944;47.048;15.390;2022-09-28T05:04:27;96145.94;;;7.03;100.00
12759;BME280;20944;47.048;15.390;2022-09-28T05:07:16;96153.34;;;7.14;100.00
12759;BME280;20944;47.048;15.390;2022-09-28T05:10:05;96148.25;;;7.11;100.00
12759;BME280;20944;47.048;15.390;2022-09-28T05:12:55;96256.84;;;7.77;100.00
12759;BME280;20944;47.048;15.390;2022-09-28T05:15:43;96247.94;;;7.83;100.00
12759;BME280;20944;47.048;15.390;2022-09-28T05:18:32;96213.31;;;7.57;100.00
12759;BME280;20944;47.048;15.390;2022-09-28T05:21:21;96168.38;;;7.29;100.00
12759;BME280;20944;47.048;15.390;2022-09-28T05:24:11;96228.22;;;7.76;100.00
12759;BME280;20944;47.048;15.390;2022-09-28T05:27:00;96242.16;;;7.97;100.00
12759;BME280;20944;47.048;15.390;2022-09-28T05:29:50;96196.59;;;7.63;100.00
12759;BME280;20944;47.048;15.390;2022-09-28T05:32:39;96202.00;;;7.80;100.00
12759;BME280;20944;47.048;15.390;2022-09-28T05:35:28;96232.06;;;8.11;100.00
12759;BME280;20944;47.048;15.390;2022-09-28T05:38:16;96238.97;;;8.12;100.00
12759;BME280;20944;47.048;15.390;2022-09-28T05:41:05;96169.97;;;7.55;100.00
12759;BME280;20944;47.048;15.390;2022-09-28T05:43:54;96195.34;;;7.72;100.00
12759;BME280;20944;47.048;15.390;2022-09-28T05:46:44;96169.69;;;7.63;100.00
12759;BME280;20944;47.048;15.390;2022-09-28T05:49:33;96232.94;;;8.10;100.00
12759;BME280;20944;47.048;15.390;2022-09-28T05:52:22;96116.69;;;7.40;100.00
12759;BME280;20944;47.048;15.390;2022-09-28T05:55:10;96213.72;;;8.13;100.00
12759;BME280;20944;47.048;15.390;2022-09-28T05:58:00;96203.03;;;8.19;100.00
12759;BME280;20944;47.048;15.390;2022-09-28T06:00:52;96200.09;;;8.26;100.00
12759;BME280;20944;47.048;15.390;2022-09-28T06:03:42;96143.22;;;7.94;100.00
12759;BME280;20944;47.048;15.390;2022-09-28T06:06:31;96080.53;;;7.54;100.00
12759;BME280;20944;47.048;15.390;2022-09-28T06:09:22;96126.56;;;7.96;100.00
12759;BME280;20944;47.048;15.390;2022-09-28T06:12:12;96122.19;;;7.97;100.00
12759;BME280;20944;47.048;15.390;2022-09-28T06:15:02;96129.25;;;7.95;100.00
12759;BME280;20944;47.048;15.390;2022-09-28T06:17:55;96195.75;;;8.47;100.00
12759;BME280;20944;47.048;15.390;2022-09-28T06:20:46;96117.47;;;8.06;100.00
12759;BME280;20944;47.048;15.390;2022-09-28T06:23:34;96200.25;;;8.64;100.00
12759;BME280;20944;47.048;15.390;2022-09-28T06:26:23;96204.03;;;8.77;100.00
12759;BME280;20944;47.048;15.390;2022-09-28T06:29:11;96178.19;;;8.71;100.00
12759;BME280;20944;47.048;15.390;2022-09-28T06:32:05;96172.78;;;8.76;100.00
12759;BME280;20944;47.048;15.390;2022-09-28T06:34:54;96170.13;;;8.96;100.00
12759;BME280;20944;47.048;15.390;2022-09-28T06:37:44;96207.47;;;9.17;100.00
12759;BME280;20944;47.048;15.390;2022-09-28T06:40:33;96152.31;;;8.85;100.00
12759;BME280;20944;47.048;15.390;2022-09-28T06:43:22;96119.78;;;8.74;100.00
12759;BME280;20944;47.048;15.390;2022-09-28T06:46:11;96163.84;;;9.19;100.00
12759;BME280;20944;47.048;15.390;2022-09-28T06:49:01;96212.13;;;9.67;100.00
12759;BME280;20944;47.048;15.390;2022-09-28T06:51:50;96068.97;;;9.00;100.00
12759;BME280;20944;47.048;15.390;2022-09-28T06:54:40;96085.00;;;9.28;100.00
12759;BME280;20944;47.048;15.390;2022-09-28T06:57:29;96186.06;;;10.02;100.00
12759;BME280;20944;47.048;15.390;2022-09-28T07:00:18;96195.59;;;10.03;100.00
12759;BME280;20944;47.048;15.390;2022-09-28T07:03:09;96134.59;;;9.30;100.00
12759;BME280;20944;47.048;15.390;2022-09-28T07:05:58;96201.63;;;9.68;100.00
12759;BME280;20944;47.048;15.390;2022-09-28T07:08:48;96202.53;;;9.67;100.00
12759;BME280;20944;47.048;15.390;2022-09-28T07:11:53;96200.13;;;9.82;100.00
12759;BME280;20944;47.048;15.390;2022-09-28T07:14:41;96157.28;;;9.65;100.00
12759;BME280;20944;47.048;15.390;2022-09-28T07:17:34;96133.50;;;9.89;100.00
12759;BME280;20944;47.048;15.390;2022-09-28T07:20:40;95915.06;;;8.95;100.00
12759;BME280;20944;47.048;15.390;2022-09-28T07:23:40;96045.44;;;10.05;100.00
12759;BME280;20944;47.048;15.390;2022-09-28T07:26:39;96039.06;;;10.28;100.00
12759;BME280;20944;47.048;15.390;2022-09-28T07:29:30;96054.81;;;10.44;100.00
12759;BME280;20944;47.048;15.390;2022-09-28T07:32:19;96135.78;;;10.97;100.00
12759;BME280;20944;47.048;15.390;2022-09-28T07:35:08;96130.91;;;11.07;100.00
12759;BME280;20944;47.048;15.390;2022-09-28T07:37:57;96158.41;;;11.31;100.00
12759;BME280;20944;47.048;15.390;2022-09-28T07:40:47;96157.84;;;11.58;100.00
12759;BME280;20944;47.048;15.390;2022-09-28T07:43:53;96087.00;;;11.42;100.00
12759;BME280;20944;47.048;15.390;2022-09-28T07:46:44;96078.69;;;11.50;100.00
12759;BME280;20944;47.048;15.390;2022-09-28T07:49:32;96146.69;;;12.00;100.00
12759;BME280;20944;47.048;15.390;2022-09-28T07:52:21;96033.06;;;11.38;100.00
12759;BME280;20944;47.048;15.390;2022-09-28T07:55:12;96135.91;;;12.21;100.00
12759;BME280;20944;47.048;15.390;2022-09-28T07:58:01;96049.00;;;11.65;100.00
12759;BME280;20944;47.048;15.390;2022-09-28T08:00:49;96128.69;;;11.94;100.00
12759;BME280;20944;47.048;15.390;2022-09-28T08:03:40;96005.91;;;11.23;100.00
12759;BME280;20944;47.048;15.390;2022-09-28T08:06:31;96154.25;;;11.91;100.00
12759;BME280;20944;47.048;15.390;2022-09-28T08:09:19;96045.75;;;10.98;100.00
12759;BME280;20944;47.048;15.390;2022-09-28T08:12:08;96139.63;;;11.55;100.00
12759;BME280;20944;47.048;15.390;2022-09-28T08:14:57;96128.63;;;11.48;100.00
12759;BME280;20944;47.048;15.390;2022-09-28T08:17:46;96097.25;;;11.31;100.00
12759;BME280;20944;47.048;15.390;2022-09-28T08:20:37;95895.13;;;9.95;100.00
12759;BME280;20944;47.048;15.390;2022-09-28T08:23:43;96140.63;;;11.68;100.00
12759;BME280;20944;47.048;15.390;2022-09-28T08:26:32;96058.09;;;11.28;100.00
12759;BME280;20944;47.048;15.390;2022-09-28T08:29:21;96102.59;;;11.75;100.00
12759;BME280;20944;47.048;15.390;2022-09-28T08:32:09;96116.19;;;12.13;100.00
12759;BME280;20944;47.048;15.390;2022-09-28T08:34:58;96137.75;;;12.49;100.00
12759;BME280;20944;47.048;15.390;2022-09-28T08:37:50;96104.34;;;12.51;100.00
12759;BME280;20944;47.048;15.390;2022-09-28T08:40:50;96056.47;;;12.31;100.00
12759;BME280;20944;47.048;15.390;2022-09-28T08:43:49;96125.97;;;12.84;100.00
12759;BME280;20944;47.048;15.390;2022-09-28T08:46:44;96117.41;;;12.81;100.00
12759;BME280;20944;47.048;15.390;2022-09-28T08:49:39;96084.94;;;12.67;100.00
12759;BME280;20944;47.048;15.390;2022-09-28T08:52:32;96098.72;;;12.85;100.00
12759;BME280;20944;47.048;15.390;2022-09-28T08:55:28;96051.97;;;12.62;100.00
12759;BME280;20944;47.048;15.390;2022-09-28T08:58:22;96066.72;;;12.79;100.00
12759;BME280;20944;47.048;15.390;2022-09-28T09:01:16;96106.78;;;13.11;100.00
12759;BME280;20944;47.048;15.390;2022-09-28T09:04:07;96108.84;;;13.06;100.00
12759;BME280;20944;47.048;15.390;2022-09-28T09:07:17;96119.00;;;12.98;100.00
12759;BME280;20944;47.048;15.390;2022-09-28T09:10:20;96116.75;;;12.91;100.00
12759;BME280;20944;47.048;15.390;2022-09-28T09:13:45;95964.00;;;11.98;100.00
12759;BME280;20944;47.048;15.390;2022-09-28T09:16:47;96107.47;;;12.86;100.00
12759;BME280;20944;47.048;15.390;2022-09-28T09:19:51;96102.66;;;12.92;100.00
12759;BME280;20944;47.048;15.390;2022-09-28T09:22:46;96070.94;;;12.81;100.00
12759;BME280;20944;47.048;15.390;2022-09-28T09:25:41;96012.41;;;12.22;100.00
12759;BME280;20944;47.048;15.390;2022-09-28T09:28:46;96062.03;;;12.41;100.00
12759;BME280;20944;47.048;15.390;2022-09-28T09:31:50;96108.09;;;12.61;100.00
12759;BME280;20944;47.048;15.390;2022-09-28T09:35:06;96021.97;;;12.23;100.00
12759;BME280;20944;47.048;15.390;2022-09-28T09:38:08;96102.47;;;12.67;100.00
12759;BME280;20944;47.048;15.390;2022-09-28T09:41:12;96082.56;;;12.49;100.00
12759;BME280;20944;47.048;15.390;2022-09-28T09:44:26;95915.34;;;11.62;100.00
12759;BME280;20944;47.048;15.390;2022-09-28T09:47:22;96057.34;;;12.60;100.00
12759;BME280;20944;47.048;15.390;2022-09-28T09:50:21;96099.75;;;13.11;100.00
12759;BME280;20944;47.048;15.390;2022-09-28T09:53:22;96092.13;;;13.35;100.00
12759;BME280;20944;47.048;15.390;2022-09-28T09:56:17;96060.94;;;13.29;100.00
12759;BME280;20944;47.048;15.390;2022-09-28T09:59:12;96040.31;;;12.94;100.00
12759;BME280;20944;47.048;15.390;2022-09-28T10:02:11;96046.06;;;12.87;100.00
12759;BME280;20944;47.048;15.390;2022-09-28T10:05:06;96079.34;;;13.29;100.00
12759;BME280;20944;47.048;15.390;2022-09-28T10:08:03;96048.28;;;13.21;100.00
12759;BME280;20944;47.048;15.390;2022-09-28T10:11:04;96073.22;;;13.43;100.00
12759;BME280;20944;47.048;15.390;2022-09-28T10:13:55;96078.34;;;13.59;100.00
12759;BME280;20944;47.048;15.390;2022-09-28T10:16:46;95964.84;;;12.96;100.00
12759;BME280;20944;47.048;15.390;2022-09-28T10:19:35;95999.50;;;13.30;100.00
12759;BME280;20944;47.048;15.390;2022-09-28T10:22:25;96066.72;;;13.88;100.00
12759;BME280;20944;47.048;15.390;2022-09-28T10:25:14;95978.81;;;12.97;100.00
12759;BME280;20944;47.048;15.390;2022-09-28T10:28:04;95983.47;;;13.06;100.00
12759;BME280;20944;47.048;15.390;2022-09-28T10:30:54;96052.59;;;13.49;100.00
12759;BME280;20944;47.048;15.390;2022-09-28T10:33:44;96073.09;;;13.59;100.00
12759;BME280;20944;47.048;15.390;2022-09-28T10:36:45;96020.44;;;13.32;100.00
12759;BME280;20944;47.048;15.390;2022-09-28T10:39:36;96012.13;;;13.52;100.00
12759;BME280;20944;47.048;15.390;2022-09-28T10:42:29;96064.16;;;13.74;100.00
12759;BME280;20944;47.048;15.390;2022-09-28T10:45:20;95924.13;;;12.75;100.00
12759;BME280;20944;47.048;15.390;2022-09-28T10:48:16;96069.28;;;13.63;100.00
12759;BME280;20944;47.048;15.390;2022-09-28T10:51:07;95971.31;;;12.91;100.00
12759;BME280;20944;47.048;15.390;2022-09-28T10:53:59;95979.38;;;13.02;100.00
12759;BME280;20944;47.048;15.390;2022-09-28T10:56:49;96067.31;;;13.66;100.00
12759;BME280;20944;47.048;15.390;2022-09-28T10:59:42;96044.03;;;13.60;100.00
12759;BME280;20944;47.048;15.390;2022-09-28T11:02:34;95969.22;;;13.37;100.00
12759;BME280;20944;47.048;15.390;2022-09-28T11:05:25;96011.34;;;13.77;100.00
12759;BME280;20944;47.048;15.390;2022-09-28T11:08:22;95873.16;;;13.05;100.00
12759;BME280;20944;47.048;15.390;2022-09-28T11:11:14;96049.13;;;14.28;100.00
12759;BME280;20944;47.048;15.390;2022-09-28T11:14:03;96050.78;;;14.29;100.00
12759;BME280;20944;47.048;15.390;2022-09-28T11:17:17;95909.44;;;13.27;100.00
12759;BME280;20944;47.048;15.390;2022-09-28T11:20:32;95949.56;;;13.43;100.00
12759;BME280;20944;47.048;15.390;2022-09-28T11:23:25;96024.75;;;14.12;100.00
12759;BME280;20944;47.048;15.390;2022-09-28T11:26:17;95944.03;;;13.86;100.00
12759;BME280;20944;47.048;15.390;2022-09-28T11:29:18;96026.81;;;14.60;100.00
12759;BME280;20944;47.048;15.390;2022-09-28T11:32:08;96032.06;;;14.72;100.00
12759;BME280;20944;47.048;15.390;2022-09-28T11:35:02;95981.53;;;14.78;100.00
12759;BME280;20944;47.048;15.390;2022-09-28T11:38:02;95953.56;;;14.76;100.00
12759;BME280;20944;47.048;15.390;2022-09-28T11:41:11;95996.78;;;15.23;100.00
12759;BME280;20944;47.048;15.390;2022-09-28T11:44:37;95980.56;;;15.40;100.00
12759;BME280;20944;47.048;15.390;2022-09-28T11:47:51;95970.22;;;15.61;100.00
12759;BME280;20944;47.048;15.390;2022-09-28T11:50:46;95980.59;;;16.10;100.00
12759;BME280;20944;47.048;15.390;2022-09-28T11:53:40;96005.38;;;16.43;100.00
12759;BME280;20944;47.048;15.390;2022-09-28T11:56:34;95949.75;;;16.56;100.00
12759;BME280;20944;47.048;15.390;2022-09-28T11:59:27;95942.19;;;16.74;100.00
12759;BME280;20944;47.048;15.390;2022-09-28T12:02:22;95884.81;;;16.63;100.00
12759;BME280;20944;47.048;15.390;2022-09-28T12:05:16;95885.59;;;16.97;100.00
12759;BME280;20944;47.048;15.390;2022-09-28T12:08:11;95949.22;;;17.71;100.00
12759;BME280;20944;47.048;15.390;2022-09-28T12:11:06;95963.41;;;18.02;100.00
12759;BME280;20944;47.048;15.390;2022-09-28T12:13:59;95899.81;;;17.60;100.00
12759;BME280;20944;47.048;15.390;2022-09-28T12:16:53;95967.09;;;17.58;100.00
12759;BME280;20944;47.048;15.390;2022-09-28T12:19:58;95962.00;;;17.66;100.00
12759;BME280;20944;47.048;15.390;2022-09-28T12:23:00;95918.97;;;17.52;100.00
12759;BME280;20944;47.048;15.390;2022-09-28T12:25:53;95955.59;;;18.00;100.00
12759;BME280;20944;47.048;15.390;2022-09-28T12:28:44;95911.34;;;18.22;100.00
12759;BME280;20944;47.048;15.390;2022-09-28T12:31:38;95942.09;;;17.83;100.00
12759;BME280;20944;47.048;15.390;2022-09-28T12:34:30;95938.97;;;17.45;100.00
12759;BME280;20944;47.048;15.390;2022-09-28T12:37:30;95806.25;;;16.42;100.00
12759;BME280;20944;47.048;15.390;2022-09-28T12:40:34;95907.09;;;17.15;100.00
12759;BME280;20944;47.048;15.390;2022-09-28T12:43:34;95869.53;;;16.78;100.00
12759;BME280;20944;47.048;15.390;2022-09-28T12:46:38;95932.56;;;16.50;100.00
12759;BME280;20944;47.048;15.390;2022-09-28T12:49:43;95912.38;;;16.15;100.00
12759;BME280;20944;47.048;15.390;2022-09-28T12:53:06;95914.88;;;15.95;100.00
12759;BME280;20944;47.048;15.390;2022-09-28T12:56:01;95920.34;;;15.69;100.00
12759;BME280;20944;47.048;15.390;2022-09-28T12:58:56;95936.31;;;15.68;100.00
12759;BME280;20944;47.048;15.390;2022-09-28T13:02:06;95879.03;;;15.33;100.00
12759;BME280;20944;47.048;15.390;2022-09-28T13:05:19;95867.47;;;15.47;100.00
12759;BME280;20944;47.048;15.390;2022-09-28T13:08:13;95922.63;;;15.74;100.00
12759;BME280;20944;47.048;15.390;2022-09-28T13:11:14;95849.31;;;15.42;100.00
12759;BME280;20944;47.048;15.390;2022-09-28T13:14:32;95929.28;;;16.02;100.00
12759;BME280;20944;47.048;15.390;2022-09-28T13:17:41;95850.63;;;15.94;100.00
12759;BME280;20944;47.048;15.390;2022-09-28T13:20:42;95902.00;;;16.57;100.00
12759;BME280;20944;47.048;15.390;2022-09-28T13:23:38;95921.16;;;16.72;100.00
12759;BME280;20944;47.048;15.390;2022-09-28T13:26:30;95926.81;;;16.79;100.00
12759;BME280;20944;47.048;15.390;2022-09-28T13:29:21;95867.19;;;16.30;100.00
12759;BME280;20944;47.048;15.390;2022-09-28T13:32:13;95924.84;;;16.69;100.00
12759;BME280;20944;47.048;15.390;2022-09-28T13:35:04;95923.06;;;16.48;100.00
12759;BME280;20944;47.048;15.390;2022-09-28T13:41:17;95827.78;;;15.71;100.00
12759;BME280;20944;47.048;15.390;2022-09-28T13:47:56;95830.69;;;15.90;100.00
12759;BME280;20944;47.048;15.390;2022-09-28T13:51:05;95908.03;;;16.48;100.00
12759;BME280;20944;47.048;15.390;2022-09-28T13:54:06;95818.56;;;15.99;100.00
12759;BME280;20944;47.048;15.390;2022-09-28T13:57:09;95882.69;;;16.45;100.00
12759;BME280;20944;47.048;15.390;2022-09-28T14:00:07;95822.75;;;16.01;100.00
12759;BME280;20944;47.048;15.390;2022-09-28T14:03:11;95901.91;;;16.36;100.00
12759;BME280;20944;47.048;15.390;2022-09-28T14:06:07;95810.47;;;15.55;100.00
12759;BME280;20944;47.048;15.390;2022-09-28T14:09:24;95907.34;;;16.24;100.00
12759;BME280;20944;47.048;15.390;2022-09-28T14:12:46;95904.81;;;16.22;100.00
12759;BME280;20944;47.048;15.390;2022-09-28T14:15:43;95849.56;;;15.85;100.00
12759;BME280;20944;47.048;15.390;2022-09-28T14:18:33;95880.16;;;15.88;100.00
12759;BME280;20944;47.048;15.390;2022-09-28T14:21:49;95833.38;;;15.55;100.00
12759;BME280;20944;47.048;15.390;2022-09-28T14:25:00;95892.19;;;15.92;100.00
12759;BME280;20944;47.048;15.390;2022-09-28T14:28:00;95872.34;;;15.75;100.00
12759;BME280;20944;47.048;15.390;2022-09-28T14:30:54;95908.88;;;16.04;100.00
12759;BME280;20944;47.048;15.390;2022-09-28T14:33:53;95920.03;;;16.07;100.00
12759;BME280;20944;47.048;15.390;2022-09-28T14:36:47;95872.47;;;15.85;100.00
12759;BME280;20944;47.048;15.390;2022-09-28T14:39:53;95902.28;;;15.98;100.00
12759;BME280;20944;47.048;15.390;2022-09-28T14:43:21;95897.09;;;16.08;100.00
12759;BME280;20944;47.048;15.390;2022-09-28T14:46:33;95901.78;;;16.04;100.00
12759;BME280;20944;47.048;15.390;2022-09-28T14:49:42;95907.44;;;16.00;100.00
12759;BME280;20944;47.048;15.390;2022-09-28T14:52:42;95905.50;;;15.90;100.00
12759;BME280;20944;47.048;15.390;2022-09-28T14:55:41;95863.41;;;15.54;100.00
12759;BME280;20944;47.048;15.390;2022-09-28T14:58:35;95861.31;;;15.35;100.00
12759;BME280;20944;47.048;15.390;2022-09-28T15:01:25;95901.56;;;15.61;100.00
12759;BME280;20944;47.048;15.390;2022-09-28T15:04:14;95893.59;;;15.50;100.00
12759;BME280;20944;47.048;15.390;2022-09-28T15:07:04;95792.28;;;14.82;100.00
12759;BME280;20944;47.048;15.390;2022-09-28T15:09:55;95881.41;;;15.25;100.00
12759;BME280;20944;47.048;15.390;2022-09-28T15:12:44;95791.75;;;14.66;100.00
12759;BME280;20944;47.048;15.390;2022-09-28T15:15:36;95897.63;;;15.31;100.00